Terminal Aerodrome Forecast
Issued by NWS

Home | Current Version | Previous Version | Text Only | Print | Product List | Glossary On
Versions: 1 2 3 4 5 6 7 8 9 10 11 12 13
088
FTUS44 KTSA 251720
TAFFYV
TAF
KFYV 251720Z 2518/2618 21011KT P6SM SCT035
     FM252100 17008KT P6SM SCT035
     FM260300 VRB03KT P6SM BKN250 PROB30 2612/2618 4SM -TSRA BR
      BKN030CB=

USA.gov is the U.S. government's official web portal to all federal, state and local government web resources and services.